Time;durP1;ratioP1;P1;durP2;ratioP2;P2;SDS_P1;SDS_P2;PMS_P1;PMS_P2;Temp;Humidity;BMP_temperature;BMP_pressure;BME280_temperature;BME280_humidity;BME280_pressure;Samples;Min_cycle;Max_cycle;Signal;HPM_P1;HPM_P2
2023/01/23 00:01:49;;;;;;;45.70;25.27;;;5.70;74.90;;;;;;5021835;28;20120;-51
2023/01/23 00:04:16;;;;;;;43.95;24.33;;;5.70;74.90;;;;;;5025248;28;20069;-51
2023/01/23 00:06:43;;;;;;;46.13;24.10;;;5.70;75.00;;;;;;5028097;28;20087;-52
2023/01/23 00:09:12;;;;;;;52.15;24.98;;;5.70;75.20;;;;;;5024833;28;20555;-52
2023/01/23 00:11:46;;;;;;;50.67;25.33;;;5.70;75.20;;;;;;5026765;28;20038;-53
2023/01/23 00:14:17;;;;;;;50.97;25.73;;;5.70;75.90;;;;;;5024700;28;20184;-53
2023/01/23 00:16:48;;;;;;;47.60;25.88;;;5.70;75.30;;;;;;5020682;28;20156;-50
2023/01/23 00:19:14;;;;;;;47.45;26.25;;;5.70;75.30;;;;;;5022604;28;20047;-56
2023/01/23 00:21:43;;;;;;;52.42;26.80;;;5.80;75.30;;;;;;5022519;28;20125;-49
2023/01/23 00:24:13;;;;;;;50.17;26.33;;;5.70;75.40;;;;;;5028274;28;20049;-49
2023/01/23 00:26:42;;;;;;;;;;;5.80;75.40;;;;;;5021101;28;20096;-50
2023/01/23 00:29:14;;;;;;;45.25;23.42;;;5.80;75.70;;;;;;5023446;28;19921;-50
2023/01/23 00:31:45;;;;;;;54.70;26.08;;;5.80;75.20;;;;;;5028083;28;20053;-52
2023/01/23 00:34:15;;;;;;;51.92;28.25;;;5.80;75.30;;;;;;5010905;28;20077;-56
2023/01/23 00:36:43;;;;;;;46.00;25.48;;;5.80;75.30;;;;;;5020941;28;20041;-50
2023/01/23 00:39:20;;;;;;;53.50;25.73;;;5.80;75.30;;;;;;5026294;28;20049;-54
2023/01/23 00:41:48;;;;;;;47.58;27.17;;;5.80;75.20;;;;;;5024751;28;20045;-54
2023/01/23 00:44:16;;;;;;;48.53;26.70;;;5.80;75.20;;;;;;5032167;28;20116;-50
2023/01/23 00:46:42;;;;;;;55.70;26.92;;;5.80;75.20;;;;;;5026001;28;20054;-54
2023/01/23 00:49:18;;;;;;;52.97;26.40;;;5.80;75.40;;;;;;5032461;28;20049;-53
2023/01/23 00:51:49;;;;;;;47.67;25.73;;;5.80;75.40;;;;;;5031834;28;20068;-52
2023/01/23 00:54:16;;;;;;;47.10;24.35;;;5.80;75.40;;;;;;5011752;28;20041;-50
2023/01/23 00:56:46;;;;;;;52.45;26.20;;;5.80;75.50;;;;;;5005688;28;20616;-49
2023/01/23 00:59:13;;;;;;;52.60;26.35;;;5.80;75.50;;;;;;5010637;28;20048;-54
2023/01/23 01:01:44;;;;;;;51.30;26.52;;;5.80;75.50;;;;;;5023332;28;20064;-53
2023/01/23 01:04:13;;;;;;;52.70;28.02;;;5.80;75.60;;;;;;5031870;28;20037;-53
2023/01/23 01:06:42;;;;;;;45.67;25.80;;;5.90;75.60;;;;;;4991869;28;20073;-50
2023/01/23 01:09:11;;;;;;;51.47;25.88;;;5.80;75.60;;;;;;5032044;28;20497;-52
2023/01/23 01:11:38;;;;;;;53.75;26.77;;;5.90;75.60;;;;;;5031533;28;20515;-52
2023/01/23 01:14:08;;;;;;;48.90;26.05;;;5.90;75.50;;;;;;5010863;28;20045;-49
2023/01/23 01:16:36;;;;;;;51.63;26.30;;;5.90;75.50;;;;;;5024019;28;20130;-53
2023/01/23 01:19:12;;;;;;;51.50;26.05;;;5.90;75.40;;;;;;5013031;28;20610;-50
2023/01/23 01:21:45;;;;;;;43.42;25.45;;;5.90;75.40;;;;;;5012633;28;20045;-55
2023/01/23 01:24:12;;;;;;;50.45;25.08;;;5.90;75.40;;;;;;5013415;28;20167;-52
2023/01/23 01:26:39;;;;;;;49.25;24.50;;;5.90;75.40;;;;;;5012502;28;20072;-53
2023/01/23 01:29:06;;;;;;;44.72;24.65;;;5.90;75.30;;;;;;5013701;28;20505;-50
2023/01/23 01:31:33;;;;;;;51.15;25.60;;;6.00;75.30;;;;;;5022998;28;20044;-49
2023/01/23 01:34:01;;;;;;;42.50;24.92;;;5.90;75.20;;;;;;5007224;28;20053;-49
2023/01/23 01:36:28;;;;;;;48.33;25.30;;;5.90;75.20;;;;;;5028942;28;20041;-50
2023/01/23 01:38:56;;;;;;;47.67;25.25;;;6.00;75.20;;;;;;5031436;28;20048;-53
2023/01/23 01:41:26;;;;;;;44.15;24.23;;;5.90;75.10;;;;;;5013316;28;20136;-54
2023/01/23 01:43:56;;;;;;;47.08;25.17;;;5.90;75.00;;;;;;5028169;28;20523;-55
2023/01/23 01:46:26;;;;;;;46.47;24.52;;;5.90;75.60;;;;;;5002952;28;20077;-48
2023/01/23 01:49:30;;;;;;;47.30;24.70;;;5.90;74.90;;;;;;5031032;28;20068;-52
2023/01/23 01:52:06;;;;;;;46.95;25.48;;;5.90;74.90;;;;;;5018850;28;20421;-51
2023/01/23 01:54:39;;;;;;;41.55;22.73;;;5.90;75.00;;;;;;5011426;28;20076;-50
2023/01/23 01:57:28;;;;;;;41.20;22.88;;;5.90;75.00;;;;;;5012705;28;20128;-49
2023/01/23 02:00:08;;;;;;;48.85;25.85;;;6.00;75.10;;;;;;4994205;28;20041;-50
2023/01/23 02:02:48;;;;;;;42.92;23.92;;;6.00;75.10;;;;;;5024647;28;20049;-53
2023/01/23 02:05:19;;;;;;;49.05;25.63;;;5.90;75.00;;;;;;5012888;28;20047;-53
2023/01/23 02:08:02;;;;;;;44.60;24.80;;;5.90;75.10;;;;;;5022541;28;20051;-51
2023/01/23 02:10:33;;;;;;;38.28;24.00;;;6.00;75.10;;;;;;5007351;28;20041;-51
2023/01/23 02:13:29;;;;;;;41.22;23.35;;;6.00;75.10;;;;;;5020998;28;20116;-52
2023/01/23 02:15:58;;;;;;;35.83;22.27;;;6.00;75.10;;;;;;5018042;28;20126;-52
2023/01/23 02:18:26;;;;;;;43.88;25.33;;;6.00;75.00;;;;;;5027301;28;20068;-50
2023/01/23 02:20:55;;;;;;;44.25;23.75;;;6.00;75.00;;;;;;5009299;28;20046;-49
2023/01/23 02:23:40;;;;;;;44.35;22.20;;;6.00;75.00;;;;;;5011608;28;20127;-50
2023/01/23 02:26:12;;;;;;;39.65;23.33;;;6.00;75.00;;;;;;5030337;28;20428;-52
2023/01/23 02:28:45;;;;;;;41.83;22.50;;;6.00;75.00;;;;;;5024712;28;20096;-50
2023/01/23 02:31:24;;;;;;;38.67;21.85;;;6.00;75.00;;;;;;5006585;28;20136;-51
2023/01/23 02:33:53;;;;;;;39.78;21.17;;;6.00;74.90;;;;;;5004745;28;20056;-53
2023/01/23 02:36:24;;;;;;;40.80;23.52;;;6.00;74.80;;;;;;5029898;28;20046;-48
2023/01/23 02:39:09;;;;;;;40.50;22.60;;;6.00;74.80;;;;;;5012674;28;20045;-52
2023/01/23 02:41:47;;;;;;;36.83;20.73;;;6.00;74.80;;;;;;5001525;28;20049;-51
2023/01/23 02:44:24;;;;;;;40.78;21.88;;;6.00;74.80;;;;;;5012342;28;20041;-53
2023/01/23 02:46:58;;;;;;;40.45;21.35;;;6.00;74.80;;;;;;5005538;28;20509;-49
2023/01/23 02:49:26;;;;;;;40.38;21.83;;;6.00;74.80;;;;;;5004871;28;20041;-53
2023/01/23 02:51:56;;;;;;;40.53;23.00;;;6.00;74.70;;;;;;5012488;28;20044;-52
2023/01/23 02:54:24;;;;;;;35.47;21.67;;;6.00;74.70;;;;;;5011649;28;20136;-50
2023/01/23 02:56:50;;;;;;;39.60;21.25;;;6.00;74.70;;;;;;5027950;28;20044;-52
2023/01/23 03:00:21;;;;;;;35.75;21.65;;;6.00;74.80;;;;;;5012284;28;20617;-47
2023/01/23 03:02:19;;;;;;;37.20;21.15;;;6.00;74.80;;;;;;4999494;28;20053;-49
2023/01/23 03:04:47;;;;;;;33.20;20.95;;;6.00;74.80;;;;;;5026365;28;20092;-51
2023/01/23 03:07:14;;;;;;;35.30;22.02;;;6.00;74.80;;;;;;5025578;28;20439;-48
2023/01/23 03:09:42;;;;;;;38.58;22.75;;;6.00;74.80;;;;;;5020695;28;20480;-50
2023/01/23 03:12:09;;;;;;;35.28;21.30;;;6.00;74.80;;;;;;5012408;28;20049;-52
2023/01/23 03:14:36;;;;;;;36.05;21.42;;;6.10;74.80;;;;;;5011856;28;20605;-52
2023/01/23 03:17:03;;;;;;;36.50;21.77;;;6.00;74.70;;;;;;5006970;28;20069;-48
2023/01/23 03:19:33;;;;;;;38.63;21.02;;;6.00;74.60;;;;;;5011789;28;20046;-52
2023/01/23 03:22:03;;;;;;;37.15;19.92;;;6.00;74.70;;;;;;5010820;28;20038;-49
2023/01/23 03:24:33;;;;;;;38.70;21.30;;;6.10;74.70;;;;;;5010431;28;20038;-52
2023/01/23 03:27:00;;;;;;;35.75;20.77;;;6.00;74.70;;;;;;5021167;28;20040;-49
2023/01/23 03:32:17;;;;;;;33.83;19.63;;;6.00;74.70;;;;;;5028659;28;20115;-49
2023/01/23 03:34:44;;;;;;;32.33;18.67;;;6.00;74.70;;;;;;5008566;28;20481;-49
2023/01/23 03:37:11;;;;;;;34.00;19.52;;;6.00;74.70;;;;;;5010413;28;20041;-52
2023/01/23 03:42:33;;;;;;;31.52;20.08;;;6.00;74.60;;;;;;5009679;28;20042;-48
2023/01/23 03:45:08;;;;;;;31.23;18.88;;;6.00;74.60;;;;;;5007531;28;20100;-53
2023/01/23 03:47:35;;;;;;;29.85;19.33;;;6.00;75.30;;;;;;5010679;28;20037;-50
2023/01/23 03:50:02;;;;;;;34.60;20.02;;;6.00;74.60;;;;;;5012145;28;20033;-49
2023/01/23 03:52:36;;;;;;;36.83;19.90;;;6.00;75.20;;;;;;5010659;28;20441;-51
2023/01/23 03:55:08;;;;;;;32.22;20.98;;;6.00;74.60;;;;;;5008790;28;20049;-51
2023/01/23 03:57:36;;;;;;;35.60;21.63;;;6.00;74.50;;;;;;5028070;28;20140;-49
2023/01/23 04:00:10;;;;;;;33.55;19.35;;;6.00;74.50;;;;;;5030152;28;20069;-48
2023/01/23 04:02:40;;;;;;;28.45;18.60;;;6.00;74.50;;;;;;5009921;28;20076;-50
2023/01/23 04:05:09;;;;;;;29.85;18.05;;;6.00;74.40;;;;;;5006362;28;20056;-49
2023/01/23 04:07:37;;;;;;;28.48;18.90;;;5.90;74.40;;;;;;5008210;28;20141;-50
2023/01/23 04:10:04;;;;;;;34.08;19.73;;;5.90;74.50;;;;;;5011769;28;20128;-50
2023/01/23 04:12:33;;;;;;;31.67;19.38;;;5.90;74.50;;;;;;5029150;28;20045;-53
2023/01/23 04:15:07;;;;;;;29.05;18.05;;;5.90;74.60;;;;;;4999040;28;20045;-50
2023/01/23 04:17:34;;;;;;;31.90;19.63;;;5.90;74.60;;;;;;5013946;28;20046;-50
2023/01/23 04:20:02;;;;;;;34.55;19.30;;;5.90;74.60;;;;;;5016348;28;20405;-49
2023/01/23 04:22:31;;;;;;;31.83;19.55;;;5.90;74.70;;;;;;5010884;28;20114;-52
2023/01/23 04:25:01;;;;;;;31.27;19.42;;;5.90;74.60;;;;;;5013707;28;20132;-52
2023/01/23 04:27:28;;;;;;;29.55;18.02;;;5.90;74.70;;;;;;5031822;28;20042;-48
2023/01/23 04:29:56;;;;;;;30.08;19.02;;;5.90;74.60;;;;;;5008068;28;20041;-48
2023/01/23 04:32:26;;;;;;;27.65;17.60;;;5.90;74.50;;;;;;5025271;28;20508;-48
2023/01/23 04:34:53;;;;;;;30.77;17.90;;;5.90;74.40;;;;;;5014365;28;20465;-49
2023/01/23 04:37:19;;;;;;;28.60;17.90;;;5.90;74.20;;;;;;5014043;28;20083;-52
2023/01/23 04:39:47;;;;;;;31.00;18.30;;;5.90;74.30;;;;;;5013537;28;20045;-50
2023/01/23 04:42:17;;;;;;;29.75;18.85;;;5.80;74.20;;;;;;5010846;28;20042;-51
2023/01/23 04:44:59;;;;;;;;;;;5.80;74.40;;;;;;5011426;28;20037;-53
2023/01/23 04:47:32;;;;;;;29.17;16.67;;;5.90;74.50;;;;;;5030991;28;19921;-50
2023/01/23 04:50:03;;;;;;;25.85;16.55;;;5.80;74.40;;;;;;5011328;28;20042;-49
2023/01/23 04:52:33;;;;;;;31.50;18.63;;;5.80;74.60;;;;;;5007982;28;20525;-48
2023/01/23 04:55:00;;;;;;;28.95;17.17;;;5.80;74.70;;;;;;5032512;28;20034;-52
2023/01/23 04:57:27;;;;;;;29.02;17.92;;;5.80;74.80;;;;;;5031349;28;20120;-52
2023/01/23 05:00:01;;;;;;;29.02;17.88;;;5.80;74.80;;;;;;5010925;28;20042;-49
2023/01/23 05:02:29;;;;;;;28.20;17.25;;;5.80;74.80;;;;;;5007943;28;20064;-50
2023/01/23 05:04:56;;;;;;;31.85;19.23;;;5.90;74.80;;;;;;5000010;28;20034;-48
2023/01/23 05:07:24;;;;;;;29.77;17.65;;;5.80;74.60;;;;;;5011667;28;20038;-49
2023/01/23 05:10:11;;;;;;;28.75;17.23;;;5.90;74.60;;;;;;5010382;28;20042;-49
2023/01/23 05:12:38;;;;;;;30.13;18.73;;;5.90;74.50;;;;;;5013340;28;20045;-52
2023/01/23 05:15:09;;;;;;;25.20;17.55;;;5.90;74.40;;;;;;5031907;28;20037;-53
2023/01/23 05:17:42;;;;;;;31.42;18.40;;;5.90;74.40;;;;;;5025650;28;20040;-49
2023/01/23 05:20:10;;;;;;;24.33;16.35;;;5.90;74.40;;;;;;5013467;28;20080;-52
2023/01/23 05:22:51;;;;;;;27.65;17.88;;;5.90;74.40;;;;;;5026162;28;20529;-51
2023/01/23 05:25:23;;;;;;;30.80;18.45;;;5.90;74.40;;;;;;5007126;28;20509;-49
2023/01/23 05:27:50;;;;;;;29.77;18.25;;;5.90;74.40;;;;;;4991526;28;20567;-48
2023/01/23 05:30:20;;;;;;;28.73;17.63;;;5.90;74.40;;;;;;5021822;28;20091;-49
2023/01/23 05:32:49;;;;;;;30.73;18.30;;;5.90;74.50;;;;;;5024502;28;20071;-51
2023/01/23 05:35:19;;;;;;;28.48;18.30;;;6.00;74.50;;;;;;5012873;28;20386;-52
2023/01/23 05:37:50;;;;;;;28.55;17.80;;;6.00;74.40;;;;;;5024328;28;20116;-49
2023/01/23 05:40:21;;;;;;;26.95;17.67;;;6.00;74.40;;;;;;5010724;28;20041;-47
2023/01/23 05:43:17;;;;;;;24.98;17.13;;;6.00;74.60;;;;;;5011810;28;20456;-51
2023/01/23 05:45:53;;;;;;;26.70;17.05;;;6.00;74.40;;;;;;5021329;28;20049;-48
2023/01/23 05:48:29;;;;;;;24.45;15.93;;;6.00;74.40;;;;;;5007859;28;21004;-49
2023/01/23 05:50:56;;;;;;;21.05;15.43;;;6.00;74.30;;;;;;5008481;28;20119;-52
2023/01/23 05:53:23;;;;;;;24.52;16.38;;;6.00;74.30;;;;;;5005525;28;20042;-49
2023/01/23 05:55:50;;;;;;;25.35;17.05;;;6.00;74.30;;;;;;5009107;28;20390;-48
2023/01/23 05:58:18;;;;;;;26.17;17.50;;;6.00;74.30;;;;;;5005573;28;20073;-53
2023/01/23 06:00:54;;;;;;;27.15;16.95;;;6.00;74.20;;;;;;5027440;28;20045;-50
2023/01/23 06:03:43;;;;;;;24.67;16.30;;;6.00;74.20;;;;;;5023994;28;20540;-50
2023/01/23 06:06:33;;;;;;;24.40;15.82;;;6.10;74.20;;;;;;5013189;28;20049;-49
2023/01/23 06:09:00;;;;;;;25.25;16.98;;;6.00;74.10;;;;;;5026518;28;20145;-49
2023/01/23 06:11:28;;;;;;;26.85;17.13;;;6.10;74.10;;;;;;5010211;28;20493;-50
2023/01/23 06:13:58;;;;;;;26.08;16.90;;;6.10;74.10;;;;;;5007619;28;20049;-51
2023/01/23 06:16:25;;;;;;;24.08;16.77;;;6.10;74.10;;;;;;5010076;28;20071;-51
2023/01/23 06:18:51;;;;;;;23.48;14.70;;;6.10;74.10;;;;;;5029276;23;20133;-50
2023/01/23 06:21:18;;;;;;;23.67;16.08;;;6.10;74.10;;;;;;4986070;28;20042;-48
2023/01/23 06:23:46;;;;;;;26.33;16.30;;;6.10;74.10;;;;;;5009768;28;20038;-49
2023/01/23 06:26:14;;;;;;;26.30;16.85;;;6.10;74.10;;;;;;4992746;28;20145;-48
2023/01/23 06:28:42;;;;;;;25.38;16.45;;;6.10;74.10;;;;;;4985370;28;20050;-49
2023/01/23 06:31:10;;;;;;;27.35;17.27;;;6.10;74.10;;;;;;4984362;28;20502;-47
2023/01/23 06:33:52;;;;;;;24.15;16.55;;;6.10;74.10;;;;;;4989294;28;20049;-49
2023/01/23 06:36:22;;;;;;;26.38;15.60;;;6.10;74.10;;;;;;4990294;28;20049;-48
2023/01/23 06:38:49;;;;;;;21.85;14.45;;;6.10;74.10;;;;;;4991282;28;20085;-49
2023/01/23 06:41:23;;;;;;;25.83;15.68;;;6.10;74.00;;;;;;4990006;28;20053;-48
2023/01/23 06:43:52;;;;;;;25.80;17.15;;;6.10;73.90;;;;;;4989703;28;20041;-50
2023/01/23 06:46:24;;;;;;;26.27;17.02;;;6.20;74.00;;;;;;4990748;28;20042;-48
2023/01/23 06:48:53;;;;;;;28.17;17.15;;;6.20;74.00;;;;;;4991122;28;20072;-49
2023/01/23 06:51:20;;;;;;;24.27;16.23;;;6.10;73.80;;;;;;4969785;28;20046;-49
2023/01/23 06:53:47;;;;;;;25.98;17.08;;;6.10;73.90;;;;;;4985180;28;20056;-48
2023/01/23 06:56:15;;;;;;;24.50;16.15;;;6.20;73.90;;;;;;4991417;28;20415;-48
2023/01/23 06:58:44;;;;;;;26.27;17.10;;;6.20;73.90;;;;;;4997055;28;20081;-49
2023/01/23 07:01:19;;;;;;;22.70;15.43;;;6.10;73.90;;;;;;4985851;28;20141;-49
2023/01/23 07:04:09;;;;;;;25.38;16.73;;;6.20;73.90;;;;;;4975291;28;20061;-51
2023/01/23 07:06:37;;;;;;;26.10;16.90;;;6.20;74.00;;;;;;4982745;28;20157;-50
2023/01/23 07:09:04;;;;;;;27.85;18.42;;;6.20;74.00;;;;;;4991312;28;20417;-49
2023/01/23 07:11:31;;;;;;;23.75;16.63;;;6.20;73.90;;;;;;4987776;28;20048;-49
2023/01/23 07:13:58;;;;;;;25.02;15.95;;;6.20;73.90;;;;;;4990785;28;20437;-53
2023/01/23 07:16:26;;;;;;;26.50;16.42;;;6.20;73.90;;;;;;4991419;28;20050;-47
2023/01/23 07:18:57;;;;;;;25.30;16.40;;;6.20;73.90;;;;;;4991036;28;20096;-47
2023/01/23 07:21:24;;;;;;;25.20;16.83;;;6.20;73.90;;;;;;4988760;28;20042;-51
2023/01/23 07:23:51;;;;;;;25.88;16.75;;;6.20;73.90;;;;;;5009025;28;20486;-48
2023/01/23 07:26:18;;;;;;;29.77;18.02;;;6.20;73.90;;;;;;5010724;28;20034;-50
2023/01/23 07:28:44;;;;;;;25.60;16.10;;;6.20;73.90;;;;;;5009145;28;20087;-49
2023/01/23 07:31:11;;;;;;;28.17;17.60;;;6.20;73.80;;;;;;5000477;28;20040;-49
2023/01/23 07:33:38;;;;;;;23.35;16.85;;;6.20;73.80;;;;;;5009667;28;20042;-48
2023/01/23 07:36:05;;;;;;;25.42;16.48;;;6.20;73.90;;;;;;5009601;28;20030;-50
2023/01/23 07:38:33;;;;;;;26.80;17.98;;;6.30;73.90;;;;;;5008953;28;20121;-51
2023/01/23 07:41:00;;;;;;;27.67;17.90;;;6.20;73.80;;;;;;5002861;28;20084;-49
2023/01/23 07:43:26;;;;;;;27.13;18.15;;;6.20;73.80;;;;;;5008056;28;20096;-49
2023/01/23 07:45:53;;;;;;;27.27;19.20;;;6.30;73.80;;;;;;5010034;28;20042;-50
2023/01/23 07:48:20;;;;;;;27.63;19.25;;;6.30;73.80;;;;;;5009320;28;20046;-50
2023/01/23 07:50:46;;;;;;;29.08;19.73;;;6.30;73.80;;;;;;5006552;28;20128;-50
2023/01/23 07:53:13;;;;;;;27.15;18.77;;;6.30;73.80;;;;;;5012751;28;20048;-53
2023/01/23 07:55:40;;;;;;;28.50;19.77;;;6.30;74.00;;;;;;5010794;28;20041;-50
2023/01/23 07:58:06;;;;;;;25.75;18.02;;;6.30;73.90;;;;;;5008002;28;20076;-53
2023/01/23 08:00:33;;;;;;;27.17;18.92;;;6.30;73.90;;;;;;5013140;28;20038;-52
2023/01/23 08:03:00;;;;;;;30.00;18.17;;;6.30;73.90;;;;;;5012489;28;20100;-50
2023/01/23 08:05:26;;;;;;;26.63;18.35;;;6.30;73.80;;;;;;5008199;28;20034;-50
2023/01/23 08:07:53;;;;;;;23.95;16.95;;;6.30;73.70;;;;;;5008824;28;20062;-51
2023/01/23 08:10:38;;;;;;;27.23;17.85;;;6.30;73.60;;;;;;4991503;28;20142;-49
2023/01/23 08:13:05;;;;;;;24.55;16.90;;;6.40;73.60;;;;;;5011843;28;20494;-48
2023/01/23 08:15:32;;;;;;;25.45;17.33;;;6.40;73.60;;;;;;5010914;28;20037;-49
2023/01/23 08:17:58;;;;;;;23.90;17.13;;;6.40;73.70;;;;;;5008549;28;20046;-53
2023/01/23 08:20:25;;;;;;;29.52;18.88;;;6.40;73.60;;;;;;5012476;28;20050;-53
2023/01/23 08:22:55;;;;;;;30.30;18.65;;;6.40;73.50;;;;;;5011537;28;20053;-51
2023/01/23 08:25:21;;;;;;;29.17;19.17;;;6.40;73.50;;;;;;5005300;28;20387;-53
2023/01/23 08:27:48;;;;;;;29.48;19.98;;;6.40;73.50;;;;;;5000813;28;20061;-50
2023/01/23 08:30:15;;;;;;;28.88;20.02;;;6.40;73.40;;;;;;5012031;28;20052;-52
2023/01/23 08:32:42;;;;;;;30.20;18.65;;;6.40;73.40;;;;;;5011188;28;20033;-51
2023/01/23 08:35:09;;;;;;;31.65;20.40;;;6.50;73.40;;;;;;5003343;28;20042;-53
2023/01/23 08:37:36;;;;;;;28.00;19.35;;;6.50;73.40;;;;;;5005631;28;20042;-48
2023/01/23 08:40:04;;;;;;;27.95;19.15;;;6.50;73.40;;;;;;5011546;28;20050;-50
2023/01/23 08:42:30;;;;;;;32.75;20.88;;;6.50;73.40;;;;;;5010713;28;20046;-51
2023/01/23 08:44:57;;;;;;;33.63;23.50;;;6.60;73.40;;;;;;5006473;28;20136;-51
2023/01/23 08:47:24;;;;;;;32.65;20.92;;;6.50;73.40;;;;;;5007667;28;20568;-49
2023/01/23 08:49:50;;;;;;;32.50;20.95;;;6.60;73.50;;;;;;5011106;28;20042;-50
2023/01/23 08:52:17;;;;;;;32.70;21.02;;;6.60;73.40;;;;;;5010218;28;20459;-50
2023/01/23 08:54:44;;;;;;;30.40;19.08;;;6.60;73.30;;;;;;5009558;28;20053;-50
2023/01/23 08:57:10;;;;;;;30.27;20.38;;;6.60;73.30;;;;;;5007998;28;20038;-52
2023/01/23 08:59:37;;;;;;;29.42;20.00;;;6.60;73.20;;;;;;5010876;28;20057;-52
2023/01/23 09:02:04;;;;;;;28.15;19.67;;;6.70;73.30;;;;;;5010624;28;20046;-49
2023/01/23 09:04:31;;;;;;;30.80;20.85;;;6.70;73.20;;;;;;4993255;28;20141;-53
2023/01/23 09:06:57;;;;;;;30.73;19.50;;;6.70;73.20;;;;;;5009872;28;20070;-52
2023/01/23 09:09:24;;;;;;;32.75;19.70;;;6.80;73.20;;;;;;5010248;28;20034;-50
2023/01/23 09:11:54;;;;;;;30.33;20.23;;;6.80;73.00;;;;;;5009211;28;20034;-50
2023/01/23 09:14:21;;;;;;;29.45;20.40;;;6.80;72.90;;;;;;5004720;28;20041;-52
2023/01/23 09:16:48;;;;;;;31.98;20.42;;;6.80;72.90;;;;;;5011431;28;20081;-51
2023/01/23 09:19:14;;;;;;;31.73;19.38;;;6.80;73.00;;;;;;4974444;28;1054011;-53
2023/01/23 09:21:41;;;;;;;29.83;20.02;;;6.90;72.90;;;;;;5010292;28;20077;-52
2023/01/23 09:24:08;;;;;;;31.52;19.73;;;6.90;72.80;;;;;;5004988;28;20062;-50
2023/01/23 09:26:34;;;;;;;27.42;18.83;;;6.90;72.90;;;;;;5011126;28;20042;-48
2023/01/23 09:29:01;;;;;;;30.80;20.13;;;6.90;72.80;;;;;;5011201;28;20048;-50
2023/01/23 09:31:28;;;;;;;32.70;20.67;;;6.90;73.40;;;;;;5012308;28;20034;-53
2023/01/23 09:33:54;;;;;;;30.98;20.20;;;6.90;72.70;;;;;;5006433;28;20038;-48
2023/01/23 09:36:21;;;;;;;30.58;19.95;;;7.00;72.60;;;;;;5010816;28;20046;-52
2023/01/23 09:39:03;;;;;;;29.63;20.00;;;7.00;72.50;;;;;;5011256;28;20602;-49
2023/01/23 09:41:30;;;;;;;33.90;22.08;;;7.00;72.50;;;;;;5006068;28;20034;-49
2023/01/23 09:44:06;;;;;;;33.00;22.27;;;7.00;72.50;;;;;;5008412;28;20116;-53
2023/01/23 09:46:45;;;;;;;32.75;20.88;;;7.00;72.40;;;;;;5009989;28;20092;-49
2023/01/23 09:49:40;;;;;;;32.45;20.10;;;7.00;72.30;;;;;;5003594;28;20517;-49
2023/01/23 09:52:17;;;;;;;30.67;20.92;;;7.00;72.20;;;;;;5001186;28;20692;-50
2023/01/23 09:54:46;;;;;;;34.10;23.15;;;7.10;72.50;;;;;;5010661;28;20100;-48
2023/01/23 09:57:14;;;;;;;36.38;23.75;;;7.10;72.40;;;;;;5002319;28;20041;-53
2023/01/23 09:59:48;;;;;;;37.85;23.95;;;7.10;72.20;;;;;;5007053;28;20041;-53
2023/01/23 10:02:27;;;;;;;37.33;23.83;;;7.10;72.10;;;;;;5008447;28;20058;-50
2023/01/23 10:04:56;;;;;;;36.60;22.85;;;7.10;72.20;;;;;;5009580;28;20684;-52
2023/01/23 10:07:23;;;;;;;34.63;21.42;;;7.10;72.20;;;;;;5009607;28;20438;-51
2023/01/23 10:10:20;;;;;;;36.63;24.02;;;7.20;72.20;;;;;;5004604;28;20042;-49
2023/01/23 10:13:01;;;;;;;33.63;22.33;;;7.20;71.90;;;;;;5009701;28;20038;-51
2023/01/23 10:15:57;;;;;;;34.03;23.35;;;7.20;71.90;;;;;;5008984;28;20404;-52
2023/01/23 10:18:37;;;;;;;31.85;20.08;;;7.20;71.90;;;;;;4991004;28;20038;-50
2023/01/23 10:21:10;;;;;;;30.85;21.38;;;7.20;71.70;;;;;;4992825;28;20417;-48
2023/01/23 10:24:00;;;;;;;32.65;21.58;;;7.20;71.70;;;;;;5010421;28;20425;-52
2023/01/23 10:26:37;;;;;;;30.50;19.63;;;7.20;71.50;;;;;;5007226;28;20646;-49
2023/01/23 10:29:42;;;;;;;29.15;18.80;;;7.20;71.60;;;;;;5010047;28;20056;-52
2023/01/23 10:32:36;;;;;;;28.00;17.08;;;7.20;71.20;;;;;;4949645;29;20202;-51
2023/01/23 10:35:11;;;;;;;25.75;17.27;;;7.20;71.20;;;;;;5008635;28;20050;-49
2023/01/23 10:38:00;;;;;;;30.13;17.85;;;7.30;71.60;;;;;;5004665;28;20525;-50
2023/01/23 10:43:20;;;;;;;23.50;17.35;;;7.20;71.70;;;;;;5010146;28;20044;-49
2023/01/23 10:45:48;;;;;;;22.90;17.10;;;7.30;71.70;;;;;;5010181;28;20077;-50
2023/01/23 10:48:34;;;;;;;24.83;16.42;;;7.30;71.60;;;;;;5002596;28;20581;-52
2023/01/23 10:51:03;;;;;;;22.52;15.50;;;7.40;71.00;;;;;;5011322;28;20069;-49
2023/01/23 10:53:29;;;;;;;26.83;17.35;;;7.40;71.40;;;;;;5009964;28;20540;-49
2023/01/23 10:55:59;;;;;;;26.05;17.95;;;7.40;71.40;;;;;;5004392;28;20056;-50
2023/01/23 10:58:36;;;;;;;23.40;16.17;;;7.40;71.20;;;;;;5004598;28;20037;-53
2023/01/23 11:01:03;;;;;;;22.42;14.38;;;7.50;70.90;;;;;;5010823;28;20046;-52
2023/01/23 11:03:33;;;;;;;20.65;14.52;;;7.50;70.90;;;;;;5009467;28;20056;-52
2023/01/23 11:06:03;;;;;;;22.58;15.27;;;7.50;70.50;;;;;;5006036;28;20046;-50
2023/01/23 11:08:31;;;;;;;21.80;13.75;;;7.50;70.50;;;;;;5008982;28;20191;-50
2023/01/23 11:11:23;;;;;;;21.80;14.02;;;7.50;70.40;;;;;;5006750;28;20057;-46
2023/01/23 11:14:02;;;;;;;;;;;7.50;69.70;;;;;;5005034;28;20125;-50
2023/01/23 11:16:29;;;;;;;18.15;12.77;;;7.60;70.30;;;;;;4999038;28;20385;-48
2023/01/23 11:19:07;;;;;;;18.30;12.38;;;7.60;70.00;;;;;;5005471;28;20056;-48
2023/01/23 11:21:37;;;;;;;19.33;13.10;;;7.50;69.50;;;;;;5008827;28;20056;-49
2023/01/23 11:24:18;;;;;;;17.35;12.60;;;7.50;70.00;;;;;;5005489;28;20099;-47
2023/01/23 11:27:05;;;;;;;17.70;13.40;;;7.60;69.90;;;;;;5008334;28;20049;-46
2023/01/23 11:30:08;;;;;;;16.50;12.23;;;7.60;70.10;;;;;;5008658;28;20084;-47
2023/01/23 11:33:06;;;;;;;20.70;14.63;;;7.70;69.60;;;;;;4997576;28;20108;-47
2023/01/23 11:35:43;;;;;;;16.80;11.77;;;7.70;69.90;;;;;;4977874;28;20062;-47
2023/01/23 11:38:16;;;;;;;15.93;11.32;;;7.80;70.00;;;;;;5007693;28;20056;-48
2023/01/23 11:40:50;;;;;;;13.55;10.65;;;7.90;69.50;;;;;;5008877;28;20049;-50
2023/01/23 11:43:17;;;;;;;13.55;9.68;;;7.90;69.40;;;;;;5001335;28;20052;-48
2023/01/23 11:46:05;;;;;;;12.35;9.82;;;8.00;69.10;;;;;;5008471;28;20054;-50
2023/01/23 11:48:50;;;;;;;14.50;10.45;;;8.10;68.40;;;;;;5002384;28;20062;-50
2023/01/23 11:51:25;;;;;;;13.45;10.30;;;8.10;68.10;;;;;;5006949;28;20561;-48
2023/01/23 11:54:11;;;;;;;13.63;9.95;;;8.10;68.40;;;;;;4997349;28;20097;-50
2023/01/23 11:56:42;;;;;;;12.60;9.85;;;8.10;67.60;;;;;;5008128;28;20050;-48
2023/01/23 11:59:30;;;;;;;11.65;9.23;;;8.20;68.00;;;;;;5009695;28;20526;-50
2023/01/23 12:02:11;;;;;;;11.85;8.85;;;8.20;67.60;;;;;;5008612;28;20070;-49
2023/01/23 12:05:05;;;;;;;12.23;9.05;;;8.20;66.90;;;;;;5003967;28;20038;-49
2023/01/23 12:07:58;;;;;;;12.98;9.25;;;8.20;67.30;;;;;;5002228;28;20758;-46
2023/01/23 12:10:44;;;;;;;12.63;10.32;;;8.20;67.30;;;;;;4991908;28;20096;-51
2023/01/23 12:13:27;;;;;;;11.77;8.93;;;8.30;67.00;;;;;;5002399;28;20042;-48
2023/01/23 12:16:02;;;;;;;11.40;8.70;;;8.30;67.50;;;;;;5009080;28;20056;-50
2023/01/23 12:19:14;;;;;;;14.05;8.80;;;8.20;67.10;;;;;;5001442;28;20084;-46
2023/01/23 12:21:53;;;;;;;10.32;7.63;;;8.30;66.40;;;;;;5004940;28;20045;-47
2023/01/23 12:24:45;;;;;;;13.00;9.02;;;8.30;67.20;;;;;;5008466;28;20056;-48
2023/01/23 12:27:33;;;;;;;11.17;8.40;;;8.30;66.50;;;;;;4990336;28;20056;-46
2023/01/23 12:30:24;;;;;;;14.05;9.02;;;8.30;67.00;;;;;;5000297;28;20056;-49
2023/01/23 12:33:03;;;;;;;12.43;9.30;;;8.30;66.00;;;;;;5013337;28;20502;-46
2023/01/23 12:36:05;;;;;;;12.95;9.38;;;8.30;66.50;;;;;;5012921;28;20046;-47
2023/01/23 12:39:09;;;;;;;11.98;9.55;;;8.30;65.80;;;;;;5010598;28;20046;-46
2023/01/23 12:41:42;;;;;;;12.63;9.98;;;8.30;65.80;;;;;;5009589;28;20042;-47
2023/01/23 12:44:17;;;;;;;13.32;10.13;;;8.30;66.40;;;;;;5011909;28;20570;-50
2023/01/23 12:46:52;;;;;;;15.48;9.95;;;8.30;66.40;;;;;;5012223;28;20050;-47
2023/01/23 12:49:59;;;;;;;14.38;10.15;;;8.20;66.60;;;;;;5003611;28;20065;-49
2023/01/23 12:52:31;;;;;;;15.23;10.63;;;8.20;66.00;;;;;;5006877;28;20515;-48
2023/01/23 12:55:17;;;;;;;13.02;9.50;;;8.20;66.40;;;;;;5011602;28;20070;-47
2023/01/23 12:57:50;;;;;;;13.23;9.65;;;8.10;65.90;;;;;;5011832;28;20064;-50
2023/01/23 13:00:52;;;;;;;12.48;9.70;;;8.10;66.50;;;;;;5013718;28;20053;-47
2023/01/23 13:03:34;;;;;;;11.38;9.60;;;8.10;65.80;;;;;;5010650;28;20069;-49
2023/01/23 13:06:42;;;;;;;11.43;8.57;;;8.10;65.90;;;;;;5008253;28;20467;-51
2023/01/23 13:09:49;;;;;;;12.82;9.18;;;8.10;65.30;;;;;;5004325;28;20038;-48
2023/01/23 13:12:21;;;;;;;15.10;9.65;;;8.10;65.30;;;;;;5007149;28;20074;-49
2023/01/23 13:15:12;;;;;;;12.93;9.57;;;8.10;65.90;;;;;;5011874;28;20045;-49
2023/01/23 13:17:48;;;;;;;13.93;9.85;;;8.10;65.90;;;;;;5009140;28;20057;-46